Latest Coastal Weather Observations for Cerberus

IDV60701

Issued at 11:05 am EST Friday 18 April 2014 (issued every 10 minutes, with the page automatically refreshed every 10 minutes)

About coastal observations | Map of coastal stations | Coastal observations for VIC | Marine services | Other Formats
Station Details ID: 086361 Name: CERBERUS Lat: -38.36 Lon: 145.18 Height: 12.69 m
Data from the previous 72 hours. | See also: Recent months at Cerberus
Date/Time
EST
Temp

°C
Wind Pressure Rain
since 9am
mm
Weather Cloud Vis
km
Sea
Height
m
Swell
Dir
 
Speed
knots
Gust
knots
hPa Trend Height
m
Period
s
Dir
18/11:00am 13.8 SW 15 26 1015.1 - 3.4 - - - - - - -
18/10:58am 13.8 SW 15 26 1015.2 - 3.2 - - - - - - -
18/10:30am 14.5 WSW 16 25 1015.0 - 1.4 - - - - - - -
18/10:00am 17.0 WNW 12 20 1014.5 - 0.0 - - - - - - -
18/09:30am 16.2 WNW 8 16 1014.5 - 0.0 - - - - - - -
18/09:00am 15.8 NNW 3 6 1014.4 - 0.0 - - - - - - -
18/08:30am 15.6 NNW 5 7 1014.4 - 0.0 - - - - - - -
18/08:00am 15.4 NW 4 7 1014.3 - 0.0 - - - - - - -
18/07:30am 14.6 NW 5 9 1014.3 - 0.0 - - - - - - -
18/07:00am 13.7 NNW 4 7 1014.2 - 0.0 - - - - - - -
18/06:30am 14.0 NNW 4 7 1014.2 - 0.0 - - - - - - -
18/06:00am 14.3 NW 6 9 1014.4 - 0.0 - - - - - - -
18/05:30am 14.4 NW 6 10 1014.7 - 0.0 - - - - - - -
18/05:00am 13.6 NW 3 6 1014.6 - 0.0 - - - - - - -
18/04:30am 13.6 NW 4 6 1014.8 - 0.0 - - - - - - -
18/04:00am 14.2 NNW 2 4 1014.8 - 0.0 - - - - - - -
18/03:30am 14.5 NW 2 3 1015.1 - 0.0 - - - - - - -
18/03:00am 15.0 WNW 6 9 1015.1 - 0.0 - - - - - - -
18/02:30am 15.0 NW 6 9 1015.2 - 0.0 - - - - - - -
18/02:00am 12.3 NNW 3 6 1015.3 - 0.0 - - - - - - -
18/01:30am 11.3 NNE 2 3 1015.6 - 0.0 - - - - - - -
18/01:00am 12.0 SSW 2 3 1016.0 - 0.0 - - - - - - -
18/12:30am 12.0 SSW 2 3 1016.4 - 0.0 - - - - - - -
18/12:00am 12.5 SSW 0 0 1016.6 - 0.0 - - - - - - -
 
Date/Time
EST
Temp

°C
Wind Pressure Rain
since 9am
mm
Weather Cloud Vis
km
Sea
Height
m
Swell
Dir
 
Speed
knots
Gust
knots
hPa Trend Height
m
Period
s
Dir
17/11:30pm 13.1 SSW 1 2 1017.1 - 0.0 - - - - - - -
17/11:00pm 13.8 SSW 1 3 1017.2 - 0.0 - - - - - - -
17/10:30pm 13.7 SW 5 6 1017.8 - 0.0 - - - - - - -
17/10:00pm 12.4 CALM 0 0 1017.6 - 0.0 - - - - - - -
17/09:30pm 12.2 CALM 0 0 1017.7 - 0.0 - - - - - - -
17/09:00pm 12.0 E 1 2 1017.6 - 0.0 - - - - - - -
17/08:30pm 12.2 CALM 0 1 1017.8 - 0.0 - - - - - - -
17/08:00pm 12.8 E 1 2 1017.8 - 0.0 - - - - - - -
17/07:30pm 13.7 E 1 1 1018.0 - 0.0 - - - - - - -
17/07:00pm 14.8 CALM 0 1 1018.0 - 0.0 - - - - - - -
17/06:30pm 16.0 E 2 3 1018.0 - 0.0 - - - - - - -
17/06:00pm 16.8 E 2 3 1017.9 - 0.0 - - - - - - -
17/05:30pm 17.9 E 3 4 1017.9 - 0.0 - - - - - - -
17/05:00pm 19.5 E 3 5 1017.8 - 0.0 - - - - - - -
17/04:30pm 20.1 SSW 3 5 1018.1 - 0.0 - - - - - - -
17/04:00pm 20.3 SSW 3 5 1018.1 - 0.0 - - - - - - -
17/03:30pm 20.5 SSW 2 4 1018.4 - 0.0 - - - - - - -
17/03:00pm 20.9 SSW 4 6 1018.6 - 0.0 - - - - - - -
17/02:30pm 20.0 SSW 6 9 1018.9 - 0.0 - - - - - - -
17/02:00pm 22.0 NNW 5 9 1018.8 - 0.0 - - - - - - -
17/01:30pm 21.7 N 4 7 1019.1 - 0.0 - - - - - - -
17/01:00pm 20.8 NE 5 7 1019.4 - 0.0 - - - - - - -
17/12:30pm 20.5 NNE 4 6 1019.8 - 0.0 - - - - - - -
17/12:00pm 20.0 NNE 4 7 1020.0 - 0.0 - - - - - - -
17/11:30am 19.6 NNE 4 6 1020.4 - 0.0 - - - - - - -
17/11:00am 18.8 ENE 4 6 1020.6 - 0.0 - - - - - - -
17/10:30am 18.3 ENE 2 5 1020.7 - 0.0 - - - - - - -
17/10:00am 16.9 NE 3 5 1020.7 - 0.0 - - - - - - -
17/09:30am 15.9 NE 3 5 1021.0 - 0.0 - - - - - - -
17/09:00am 14.7 NNE 3 5 1021.0 - 0.0 - - - - - - -
17/08:30am 13.4 NNE 3 4 1021.0 - 0.0 - - - - - - -
17/08:00am 11.8 NNE 3 4 1020.7 - 0.0 - - - - - - -
17/07:30am 10.2 NNE 2 2 1020.7 - 0.0 - - - - - - -
17/07:00am 9.1 NNE 1 1 1020.3 - 0.0 - - - - - - -
17/06:30am 9.2 NNE 1 2 1020.1 - 0.0 - - - - - - -
17/06:00am 10.7 NNE 2 2 1020.0 - 0.0 - - - - - - -
17/05:30am 10.6 NNE 2 2 1019.8 - 0.0 - - - - - - -
17/05:00am 9.9 NNE 2 2 1019.6 - 0.0 - - - - - - -
17/04:30am 9.5 CALM 0 0 1019.7 - 0.0 - - - - - - -
17/04:00am 9.9 CALM 0 0 1019.3 - 0.0 - - - - - - -
17/03:30am 10.8 NNE 3 4 1019.3 - 0.0 - - - - - - -
17/03:00am 10.8 N 3 3 1019.2 - 0.0 - - - - - - -
17/02:30am 11.0 N 3 4 1019.3 - 0.0 - - - - - - -
17/02:00am 11.2 WSW 2 2 1019.3 - 0.0 - - - - - - -
17/01:30am 11.4 WSW 1 2 1019.5 - 0.0 - - - - - - -
17/01:00am 10.9 WSW 3 4 1019.4 - 0.0 - - - - - - -
17/12:30am 10.2 CALM 0 0 1019.7 - 0.0 - - - - - - -
17/12:00am 9.5 CALM 0 0 1019.5 - 0.0 - - - - - - -
 
Date/Time
EST
Temp

°C
Wind Pressure Rain
since 9am
mm
Weather Cloud Vis
km
Sea
Height
m
Swell
Dir
 
Speed
knots
Gust
knots
hPa Trend Height
m
Period
s
Dir
16/11:30pm 10.1 CALM 0 0 1019.7 - 0.0 - - - - - - -
16/11:00pm 10.0 CALM 0 0 1019.5 - 0.0 - - - - - - -
16/10:30pm 10.3 CALM 0 0 1019.7 - 0.0 - - - - - - -
16/10:00pm 11.3 CALM 0 0 1019.7 - 0.0 - - - - - - -
16/09:30pm 11.2 CALM 0 0 1019.8 - 0.0 - - - - - - -
16/09:00pm 12.3 CALM 0 1 1019.6 - 0.0 - - - - - - -
16/08:30pm 12.9 CALM 0 0 1019.6 - 0.0 - - - - - - -
16/08:00pm 13.3 WSW 2 4 1019.5 - 0.0 - - - - - - -
16/07:30pm 14.8 CALM 0 0 1019.5 - 0.0 - - - - - - -
16/07:00pm 15.7 CALM 0 2 1019.4 - 0.0 - - - - - - -
16/06:30pm 15.7 WSW 2 3 1019.4 - 0.0 - - - - - - -
16/06:00pm 16.1 WSW 4 5 1018.9 - 0.0 - - - - - - -
16/05:30pm 17.0 SW 5 8 1018.9 - 0.0 - - - - - - -
16/05:00pm 17.7 WSW 3 4 1018.5 - 0.0 - - - - - - -
16/04:30pm 17.8 WSW 4 6 1018.5 - 0.0 - - - - - - -
16/04:00pm 19.5 S 4 7 1018.1 - 0.0 - - - - - - -
16/03:30pm 19.9 SE 3 4 1018.3 - 0.0 - - - - - - -
16/03:00pm 19.8 SE 5 7 1018.3 - 0.0 - - - - - - -
16/02:30pm 19.6 E 4 6 1018.5 - 0.0 - - - - - - -
16/02:00pm 19.8 E 4 7 1018.5 - 0.0 - - - - - - -
16/01:30pm 19.5 N 2 5 1018.9 - 0.0 - - - - - - -
16/01:00pm 19.1 NE 3 5 1019.0 - 0.0 - - - - - - -
16/12:30pm 18.5 NE 3 5 1019.5 - 0.0 - - - - - - -
16/12:00pm 18.1 ENE 5 8 1019.7 - 0.0 - - - - - - -
16/11:30am 17.1 NE 7 12 1020.2 - 0.0 - - - - - - -
16/11:00am 16.9 ENE 7 12 1020.3 - 0.0 - - - - - - -
16/10:30am 16.2 NE 5 10 1020.7 - 0.0 - - - - - - -
16/10:00am 15.1 NE 5 10 1020.8 - 0.0 - - - - - - -
16/09:30am 14.3 NE 5 8 1021.3 - 0.0 - - - - - - -
16/09:00am 14.1 NE 4 7 1021.1 - 0.0 - - - - - - -
16/08:30am 13.4 N 2 6 1021.2 - 0.0 - - - - - - -
16/08:00am 11.8 N 1 3 1021.0 - 0.0 - - - - - - -
16/07:30am 7.9 NNW 1 3 1021.1 - 0.0 - - - - - - -
16/07:00am 8.4 NNW 1 3 1020.8 - 0.0 - - - - - - -
16/06:30am 7.3 NNW 2 4 1020.9 - 0.0 - - - - - - -
16/06:00am 7.8 CALM 0 0 1020.8 - 0.0 - - - - - - -
16/05:30am 8.6 CALM 0 1 1021.0 - 0.0 - - - - - - -
16/05:00am 8.8 CALM 0 2 1020.8 - 0.0 - - - - - - -
16/04:30am 9.2 CALM 0 1 1020.9 - 0.0 - - - - - - -
16/04:00am 10.9 E 1 3 1020.6 - 0.0 - - - - - - -
16/03:30am 12.9 E 3 5 1020.5 - 0.0 - - - - - - -
16/03:00am 13.0 E 2 3 1020.6 - 0.0 - - - - - - -
16/02:30am 13.8 E 4 6 1021.0 - 0.0 - - - - - - -
16/02:00am 14.2 E 5 9 1021.4 - 0.0 - - - - - - -
16/01:30am 14.0 ESE 4 6 1021.9 - 0.0 - - - - - - -
16/01:00am 14.0 E 3 6 1022.0 - 0.0 - - - - - - -
16/12:30am 14.2 E 4 6 1022.1 - 0.0 - - - - - - -
16/12:00am 14.2 ESE 4 7 1022.3 - 0.0 - - - - - - -
 
Date/Time
EST
Temp

°C
Wind Pressure Rain
since 9am
mm
Weather Cloud Vis
km
Sea
Height
m
Swell
Dir
 
Speed
knots
Gust
knots
hPa Trend Height
m
Period
s
Dir
15/11:30pm 14.2 E 4 6 1022.5 - 0.0 - - - - - - -
15/11:00pm 14.5 E 4 6 1022.9 - 0.0 - - - - - - -
15/10:30pm 14.5 ESE 3 6 1023.0 - 0.0 - - - - - - -
15/10:00pm 14.5 E 3 6 1023.4 - 0.0 - - - - - - -
15/09:30pm 14.7 ESE 3 6 1023.4 - 0.0 - - - - - - -
15/09:00pm 14.9 E 3 5 1023.2 - 0.0 - - - - - - -
15/08:30pm 15.4 E 4 7 1023.1 - 0.0 - - - - - - -
15/08:00pm 16.1 E 5 8 1022.9 - 0.0 - - - - - - -
15/07:30pm 16.3 SE 4 8 1023.1 - 0.0 - - - - - - -
15/07:00pm 16.0 SE 5 8 1022.8 - 0.0 - - - - - - -
15/06:30pm 15.9 SE 6 9 1022.6 - 0.0 - - - - - - -
15/06:00pm 16.3 SE 6 12 1022.4 - 0.0 - - - - - - -
15/05:30pm 16.9 SE 7 11 1022.2 - 0.0 - - - - - - -
15/05:00pm 17.4 SE 8 13 1022.0 - 0.0 - - - - - - -
15/04:30pm 17.9 SSE 7 11 1022.1 - 0.0 - - - - - - -
15/04:00pm 18.4 S 7 12 1022.2 - 0.0 - - - - - - -
15/03:30pm 18.4 SSE 8 15 1022.3 - 0.0 - - - - - - -
15/03:00pm 18.8 S 8 12 1022.4 - 0.0 - - - - - - -
15/02:30pm 18.9 S 7 11 1022.3 - 0.0 - - - - - - -
15/02:00pm 18.5 S 8 12 1022.3 - 0.0 - - - - - - -
15/01:30pm 18.3 S 8 14 1022.4 - 0.0 - - - - - - -
15/01:00pm 18.4 S 8 13 1022.7 - 0.0 - - - - - - -
15/12:30pm 19.0 S 7 12 1023.1 - 0.0 - - - - - - -
15/12:00pm 18.5 ESE 6 10 1023.5 - 0.0 - - - - - - -
15/11:30am 18.4 ESE 6 9 1023.7 - 0.0 - - - - - - -

Other Formats:

Comma delimited format used in spreadsheet applications
http://www.bom.gov.au/fwo/IDV60701/IDV60701.94898.axf

JavaScript Object Notation format (JSON) in row-major order
http://www.bom.gov.au/fwo/IDV60701/IDV60701.94898.json